sensor_id;sensor_type;location;lat;lon;timestamp;P1;durP1;ratioP1;P2;durP2;ratioP2
13660;SDS011;6903;49.480;11.102;2023-05-20T00:00:04;6.47;;;4.00;;
13660;SDS011;6903;49.480;11.102;2023-05-20T00:02:30;4.40;;;3.77;;
13660;SDS011;6903;49.480;11.102;2023-05-20T00:04:56;3.90;;;3.50;;
13660;SDS011;6903;49.480;11.102;2023-05-20T00:07:21;4.03;;;3.63;;
13660;SDS011;6903;49.480;11.102;2023-05-20T00:09:46;4.90;;;3.90;;
13660;SDS011;6903;49.480;11.102;2023-05-20T00:12:12;4.23;;;3.83;;
13660;SDS011;6903;49.480;11.102;2023-05-20T00:14:37;6.20;;;4.00;;
13660;SDS011;6903;49.480;11.102;2023-05-20T00:17:02;4.40;;;3.77;;
13660;SDS011;6903;49.480;11.102;2023-05-20T00:19:28;4.80;;;3.90;;
13660;SDS011;6903;49.480;11.102;2023-05-20T00:21:53;6.47;;;3.90;;
13660;SDS011;6903;49.480;11.102;2023-05-20T00:24:21;6.17;;;4.30;;
13660;SDS011;6903;49.480;11.102;2023-05-20T00:26:46;4.43;;;3.67;;
13660;SDS011;6903;49.480;11.102;2023-05-20T00:29:12;6.00;;;3.50;;
13660;SDS011;6903;49.480;11.102;2023-05-20T00:31:37;4.57;;;3.97;;
13660;SDS011;6903;49.480;11.102;2023-05-20T00:34:02;4.63;;;4.10;;
13660;SDS011;6903;49.480;11.102;2023-05-20T00:36:27;3.83;;;3.50;;
13660;SDS011;6903;49.480;11.102;2023-05-20T00:38:53;5.33;;;3.83;;
13660;SDS011;6903;49.480;11.102;2023-05-20T00:41:18;4.70;;;4.20;;
13660;SDS011;6903;49.480;11.102;2023-05-20T00:43:43;4.30;;;3.83;;
13660;SDS011;6903;49.480;11.102;2023-05-20T00:46:09;4.47;;;3.80;;
13660;SDS011;6903;49.480;11.102;2023-05-20T00:48:39;6.03;;;4.33;;
13660;SDS011;6903;49.480;11.102;2023-05-20T00:51:06;5.53;;;4.00;;
13660;SDS011;6903;49.480;11.102;2023-05-20T00:53:31;4.67;;;4.10;;
13660;SDS011;6903;49.480;11.102;2023-05-20T00:55:58;5.17;;;4.03;;
13660;SDS011;6903;49.480;11.102;2023-05-20T00:58:23;5.57;;;3.93;;
13660;SDS011;6903;49.480;11.102;2023-05-20T01:00:49;4.77;;;4.13;;
13660;SDS011;6903;49.480;11.102;2023-05-20T01:03:14;5.03;;;4.30;;
13660;SDS011;6903;49.480;11.102;2023-05-20T01:05:40;5.50;;;4.37;;
13660;SDS011;6903;49.480;11.102;2023-05-20T01:08:05;4.30;;;3.90;;
13660;SDS011;6903;49.480;11.102;2023-05-20T01:10:31;5.13;;;4.53;;
13660;SDS011;6903;49.480;11.102;2023-05-20T01:13:00;5.23;;;4.30;;
13660;SDS011;6903;49.480;11.102;2023-05-20T01:15:30;4.60;;;4.10;;
13660;SDS011;6903;49.480;11.102;2023-05-20T01:17:57;5.10;;;4.60;;
13660;SDS011;6903;49.480;11.102;2023-05-20T01:20:26;4.73;;;4.27;;
13660;SDS011;6903;49.480;11.102;2023-05-20T01:22:53;6.27;;;4.70;;
13660;SDS011;6903;49.480;11.102;2023-05-20T01:25:19;5.63;;;4.20;;
13660;SDS011;6903;49.480;11.102;2023-05-20T01:27:45;7.10;;;4.70;;
13660;SDS011;6903;49.480;11.102;2023-05-20T01:30:11;5.57;;;4.93;;
13660;SDS011;6903;49.480;11.102;2023-05-20T01:32:43;5.23;;;4.57;;
13660;SDS011;6903;49.480;11.102;2023-05-20T01:35:14;6.07;;;5.23;;
13660;SDS011;6903;49.480;11.102;2023-05-20T01:37:41;5.40;;;4.90;;
13660;SDS011;6903;49.480;11.102;2023-05-20T01:40:08;5.00;;;4.50;;
13660;SDS011;6903;49.480;11.102;2023-05-20T01:42:34;5.60;;;5.00;;
13660;SDS011;6903;49.480;11.102;2023-05-20T01:45:01;5.57;;;5.00;;
13660;SDS011;6903;49.480;11.102;2023-05-20T01:47:27;5.57;;;4.50;;
13660;SDS011;6903;49.480;11.102;2023-05-20T01:49:52;8.13;;;5.00;;
13660;SDS011;6903;49.480;11.102;2023-05-20T01:52:18;5.50;;;4.90;;
13660;SDS011;6903;49.480;11.102;2023-05-20T01:54:44;5.23;;;4.73;;
13660;SDS011;6903;49.480;11.102;2023-05-20T01:57:14;5.93;;;4.63;;
13660;SDS011;6903;49.480;11.102;2023-05-20T01:59:41;5.13;;;4.43;;
13660;SDS011;6903;49.480;11.102;2023-05-20T02:02:06;5.20;;;4.70;;
13660;SDS011;6903;49.480;11.102;2023-05-20T02:04:32;5.27;;;4.70;;
13660;SDS011;6903;49.480;11.102;2023-05-20T02:06:57;5.40;;;4.90;;
13660;SDS011;6903;49.480;11.102;2023-05-20T02:09:22;6.57;;;5.53;;
13660;SDS011;6903;49.480;11.102;2023-05-20T02:11:47;5.40;;;4.90;;
13660;SDS011;6903;49.480;11.102;2023-05-20T02:14:13;5.87;;;5.27;;
13660;SDS011;6903;49.480;11.102;2023-05-20T02:16:38;6.00;;;4.97;;
13660;SDS011;6903;49.480;11.102;2023-05-20T02:19:03;5.33;;;4.83;;
13660;SDS011;6903;49.480;11.102;2023-05-20T02:21:29;7.13;;;4.90;;
13660;SDS011;6903;49.480;11.102;2023-05-20T02:23:55;6.00;;;5.40;;
13660;SDS011;6903;49.480;11.102;2023-05-20T02:26:20;5.27;;;4.77;;
13660;SDS011;6903;49.480;11.102;2023-05-20T02:28:46;7.10;;;5.90;;
13660;SDS011;6903;49.480;11.102;2023-05-20T02:31:14;6.57;;;5.67;;
13660;SDS011;6903;49.480;11.102;2023-05-20T02:33:40;6.03;;;5.43;;
13660;SDS011;6903;49.480;11.102;2023-05-20T02:36:06;5.90;;;5.40;;
13660;SDS011;6903;49.480;11.102;2023-05-20T02:38:31;6.50;;;5.87;;
13660;SDS011;6903;49.480;11.102;2023-05-20T02:40:57;7.60;;;6.37;;
13660;SDS011;6903;49.480;11.102;2023-05-20T02:43:23;6.70;;;5.83;;
13660;SDS011;6903;49.480;11.102;2023-05-20T02:45:49;6.23;;;5.63;;
13660;SDS011;6903;49.480;11.102;2023-05-20T02:48:14;6.33;;;5.47;;
13660;SDS011;6903;49.480;11.102;2023-05-20T02:50:40;7.30;;;5.90;;
13660;SDS011;6903;49.480;11.102;2023-05-20T02:53:05;7.67;;;6.20;;
13660;SDS011;6903;49.480;11.102;2023-05-20T02:55:32;9.50;;;6.30;;
13660;SDS011;6903;49.480;11.102;2023-05-20T02:57:58;6.67;;;6.07;;
13660;SDS011;6903;49.480;11.102;2023-05-20T03:00:24;6.23;;;5.63;;
13660;SDS011;6903;49.480;11.102;2023-05-20T03:02:52;6.03;;;5.43;;
13660;SDS011;6903;49.480;11.102;2023-05-20T03:05:17;8.00;;;6.10;;
13660;SDS011;6903;49.480;11.102;2023-05-20T03:07:43;7.83;;;6.30;;
13660;SDS011;6903;49.480;11.102;2023-05-20T03:10:10;6.40;;;5.80;;
13660;SDS011;6903;49.480;11.102;2023-05-20T03:12:35;6.47;;;5.83;;
13660;SDS011;6903;49.480;11.102;2023-05-20T03:15:00;7.00;;;6.37;;
13660;SDS011;6903;49.480;11.102;2023-05-20T03:17:26;6.60;;;5.70;;
13660;SDS011;6903;49.480;11.102;2023-05-20T03:19:51;7.00;;;6.20;;
13660;SDS011;6903;49.480;11.102;2023-05-20T03:22:16;6.77;;;6.07;;
13660;SDS011;6903;49.480;11.102;2023-05-20T03:24:42;6.83;;;5.87;;
13660;SDS011;6903;49.480;11.102;2023-05-20T03:27:08;6.50;;;5.90;;
13660;SDS011;6903;49.480;11.102;2023-05-20T03:29:33;7.43;;;6.10;;
13660;SDS011;6903;49.480;11.102;2023-05-20T03:31:58;7.00;;;6.20;;
13660;SDS011;6903;49.480;11.102;2023-05-20T03:34:24;7.37;;;6.40;;
13660;SDS011;6903;49.480;11.102;2023-05-20T03:36:52;7.63;;;5.97;;
13660;SDS011;6903;49.480;11.102;2023-05-20T03:39:17;6.67;;;6.00;;
13660;SDS011;6903;49.480;11.102;2023-05-20T03:41:42;6.90;;;6.20;;
13660;SDS011;6903;49.480;11.102;2023-05-20T03:44:08;7.40;;;6.13;;
13660;SDS011;6903;49.480;11.102;2023-05-20T03:46:33;7.53;;;6.30;;
13660;SDS011;6903;49.480;11.102;2023-05-20T03:48:58;6.53;;;5.63;;
13660;SDS011;6903;49.480;11.102;2023-05-20T03:51:25;7.77;;;6.33;;
13660;SDS011;6903;49.480;11.102;2023-05-20T03:53:51;7.00;;;6.27;;
13660;SDS011;6903;49.480;11.102;2023-05-20T03:56:16;7.67;;;6.63;;
13660;SDS011;6903;49.480;11.102;2023-05-20T03:58:41;6.70;;;6.07;;
13660;SDS011;6903;49.480;11.102;2023-05-20T04:01:07;6.87;;;6.10;;
13660;SDS011;6903;49.480;11.102;2023-05-20T04:03:32;7.20;;;6.20;;
13660;SDS011;6903;49.480;11.102;2023-05-20T04:05:58;7.93;;;6.73;;
13660;SDS011;6903;49.480;11.102;2023-05-20T04:08:23;8.47;;;6.97;;
13660;SDS011;6903;49.480;11.102;2023-05-20T04:10:50;8.00;;;7.00;;
13660;SDS011;6903;49.480;11.102;2023-05-20T04:13:19;8.33;;;6.53;;
13660;SDS011;6903;49.480;11.102;2023-05-20T04:15:44;7.73;;;7.03;;
13660;SDS011;6903;49.480;11.102;2023-05-20T04:18:09;7.30;;;6.50;;
13660;SDS011;6903;49.480;11.102;2023-05-20T04:20:36;7.13;;;6.43;;
13660;SDS011;6903;49.480;11.102;2023-05-20T04:23:01;8.23;;;7.40;;
13660;SDS011;6903;49.480;11.102;2023-05-20T04:25:26;10.87;;;6.67;;
13660;SDS011;6903;49.480;11.102;2023-05-20T04:27:52;7.47;;;6.67;;
13660;SDS011;6903;49.480;11.102;2023-05-20T04:30:18;7.60;;;6.90;;
13660;SDS011;6903;49.480;11.102;2023-05-20T04:32:45;8.13;;;6.90;;
13660;SDS011;6903;49.480;11.102;2023-05-20T04:35:12;8.03;;;6.80;;
13660;SDS011;6903;49.480;11.102;2023-05-20T04:37:37;6.97;;;6.27;;
13660;SDS011;6903;49.480;11.102;2023-05-20T04:40:03;7.80;;;6.17;;
13660;SDS011;6903;49.480;11.102;2023-05-20T04:42:30;7.10;;;6.40;;
13660;SDS011;6903;49.480;11.102;2023-05-20T04:44:57;7.43;;;6.63;;
13660;SDS011;6903;49.480;11.102;2023-05-20T04:47:22;7.00;;;6.30;;
13660;SDS011;6903;49.480;11.102;2023-05-20T04:49:47;7.03;;;6.33;;
13660;SDS011;6903;49.480;11.102;2023-05-20T04:52:14;6.80;;;6.10;;
13660;SDS011;6903;49.480;11.102;2023-05-20T04:54:39;7.00;;;6.00;;
13660;SDS011;6903;49.480;11.102;2023-05-20T04:57:05;6.60;;;6.00;;
13660;SDS011;6903;49.480;11.102;2023-05-20T04:59:31;7.10;;;6.40;;
13660;SDS011;6903;49.480;11.102;2023-05-20T05:01:56;6.97;;;6.10;;
13660;SDS011;6903;49.480;11.102;2023-05-20T05:04:21;8.00;;;6.27;;
13660;SDS011;6903;49.480;11.102;2023-05-20T05:06:47;8.40;;;6.80;;
13660;SDS011;6903;49.480;11.102;2023-05-20T05:09:13;6.80;;;6.10;;
13660;SDS011;6903;49.480;11.102;2023-05-20T05:11:39;8.47;;;6.80;;
13660;SDS011;6903;49.480;11.102;2023-05-20T05:14:04;9.33;;;6.90;;
13660;SDS011;6903;49.480;11.102;2023-05-20T05:16:29;6.37;;;5.13;;
13660;SDS011;6903;49.480;11.102;2023-05-20T05:18:55;8.17;;;6.97;;
13660;SDS011;6903;49.480;11.102;2023-05-20T05:21:20;6.85;;;6.13;;
13660;SDS011;6903;49.480;11.102;2023-05-20T05:23:45;7.03;;;5.88;;
13660;SDS011;6903;49.480;11.102;2023-05-20T05:26:11;6.82;;;5.53;;
13660;SDS011;6903;49.480;11.102;2023-05-20T05:28:36;7.03;;;5.53;;
13660;SDS011;6903;49.480;11.102;2023-05-20T05:31:01;7.13;;;6.32;;
13660;SDS011;6903;49.480;11.102;2023-05-20T05:33:27;5.70;;;5.20;;
13660;SDS011;6903;49.480;11.102;2023-05-20T05:35:52;8.25;;;6.47;;
13660;SDS011;6903;49.480;11.102;2023-05-20T05:38:17;6.82;;;6.22;;
13660;SDS011;6903;49.480;11.102;2023-05-20T05:40:43;6.38;;;5.72;;
13660;SDS011;6903;49.480;11.102;2023-05-20T05:43:08;6.68;;;6.00;;
13660;SDS011;6903;49.480;11.102;2023-05-20T05:45:33;5.90;;;5.40;;
13660;SDS011;6903;49.480;11.102;2023-05-20T05:47:59;6.43;;;5.80;;
13660;SDS011;6903;49.480;11.102;2023-05-20T05:50:24;7.10;;;6.07;;
13660;SDS011;6903;49.480;11.102;2023-05-20T05:52:49;6.63;;;6.03;;
13660;SDS011;6903;49.480;11.102;2023-05-20T05:55:15;6.80;;;6.20;;
13660;SDS011;6903;49.480;11.102;2023-05-20T05:57:40;7.53;;;5.70;;
13660;SDS011;6903;49.480;11.102;2023-05-20T06:00:06;7.22;;;6.03;;
13660;SDS011;6903;49.480;11.102;2023-05-20T06:02:31;6.15;;;5.55;;
13660;SDS011;6903;49.480;11.102;2023-05-20T06:05:00;7.10;;;6.40;;
13660;SDS011;6903;49.480;11.102;2023-05-20T06:07:26;6.72;;;6.03;;
13660;SDS011;6903;49.480;11.102;2023-05-20T06:09:51;7.13;;;6.43;;
13660;SDS011;6903;49.480;11.102;2023-05-20T06:12:17;6.63;;;6.03;;
13660;SDS011;6903;49.480;11.102;2023-05-20T06:14:42;7.63;;;5.65;;
13660;SDS011;6903;49.480;11.102;2023-05-20T06:17:07;6.82;;;6.13;;
13660;SDS011;6903;49.480;11.102;2023-05-20T06:19:33;6.55;;;5.95;;
13660;SDS011;6903;49.480;11.102;2023-05-20T06:21:58;6.45;;;5.85;;
13660;SDS011;6903;49.480;11.102;2023-05-20T06:24:23;7.07;;;6.30;;
13660;SDS011;6903;49.480;11.102;2023-05-20T06:26:49;7.43;;;5.97;;
13660;SDS011;6903;49.480;11.102;2023-05-20T06:29:15;6.07;;;5.53;;
13660;SDS011;6903;49.480;11.102;2023-05-20T06:31:40;6.57;;;5.97;;
13660;SDS011;6903;49.480;11.102;2023-05-20T06:34:05;6.90;;;5.95;;
13660;SDS011;6903;49.480;11.102;2023-05-20T06:36:31;6.13;;;5.20;;
13660;SDS011;6903;49.480;11.102;2023-05-20T06:38:56;6.72;;;6.10;;
13660;SDS011;6903;49.480;11.102;2023-05-20T06:41:21;8.68;;;6.07;;
13660;SDS011;6903;49.480;11.102;2023-05-20T06:43:47;6.80;;;6.10;;
13660;SDS011;6903;49.480;11.102;2023-05-20T06:46:12;6.63;;;6.03;;
13660;SDS011;6903;49.480;11.102;2023-05-20T06:48:37;6.50;;;5.90;;
13660;SDS011;6903;49.480;11.102;2023-05-20T06:51:06;7.78;;;6.85;;
13660;SDS011;6903;49.480;11.102;2023-05-20T06:53:33;7.18;;;5.95;;
13660;SDS011;6903;49.480;11.102;2023-05-20T06:55:58;7.03;;;5.93;;
13660;SDS011;6903;49.480;11.102;2023-05-20T06:58:23;7.03;;;6.05;;
13660;SDS011;6903;49.480;11.102;2023-05-20T07:00:49;9.32;;;6.05;;
13660;SDS011;6903;49.480;11.102;2023-05-20T07:03:14;6.50;;;5.90;;
13660;SDS011;6903;49.480;11.102;2023-05-20T07:05:39;6.60;;;5.93;;
13660;SDS011;6903;49.480;11.102;2023-05-20T07:08:05;6.18;;;5.68;;
13660;SDS011;6903;49.480;11.102;2023-05-20T07:10:30;7.43;;;6.28;;
13660;SDS011;6903;49.480;11.102;2023-05-20T07:12:55;6.47;;;5.88;;
13660;SDS011;6903;49.480;11.102;2023-05-20T07:15:20;7.13;;;6.30;;
13660;SDS011;6903;49.480;11.102;2023-05-20T07:17:46;6.93;;;5.93;;
13660;SDS011;6903;49.480;11.102;2023-05-20T07:20:11;6.80;;;6.20;;
13660;SDS011;6903;49.480;11.102;2023-05-20T07:22:36;6.75;;;6.03;;
13660;SDS011;6903;49.480;11.102;2023-05-20T07:25:02;7.07;;;6.28;;
13660;SDS011;6903;49.480;11.102;2023-05-20T07:27:27;6.90;;;6.30;;
13660;SDS011;6903;49.480;11.102;2023-05-20T07:29:53;8.90;;;6.53;;
13660;SDS011;6903;49.480;11.102;2023-05-20T07:32:18;7.10;;;6.35;;
13660;SDS011;6903;49.480;11.102;2023-05-20T07:34:43;7.70;;;7.00;;
13660;SDS011;6903;49.480;11.102;2023-05-20T07:37:09;8.00;;;6.13;;
13660;SDS011;6903;49.480;11.102;2023-05-20T07:39:36;7.43;;;6.05;;
13660;SDS011;6903;49.480;11.102;2023-05-20T07:42:02;7.45;;;6.75;;
13660;SDS011;6903;49.480;11.102;2023-05-20T07:44:27;7.88;;;7.05;;
13660;SDS011;6903;49.480;11.102;2023-05-20T07:46:52;12.35;;;7.57;;
13660;SDS011;6903;49.480;11.102;2023-05-20T07:49:18;7.55;;;6.85;;
13660;SDS011;6903;49.480;11.102;2023-05-20T07:51:43;7.57;;;6.88;;
13660;SDS011;6903;49.480;11.102;2023-05-20T07:54:08;7.03;;;6.28;;
13660;SDS011;6903;49.480;11.102;2023-05-20T07:56:34;7.85;;;6.28;;
13660;SDS011;6903;49.480;11.102;2023-05-20T07:58:59;7.20;;;6.50;;
13660;SDS011;6903;49.480;11.102;2023-05-20T08:01:25;7.68;;;6.88;;
13660;SDS011;6903;49.480;11.102;2023-05-20T08:03:51;7.20;;;6.60;;
13660;SDS011;6903;49.480;11.102;2023-05-20T08:06:17;7.32;;;6.63;;
13660;SDS011;6903;49.480;11.102;2023-05-20T08:08:44;7.75;;;7.05;;
13660;SDS011;6903;49.480;11.102;2023-05-20T08:11:10;7.15;;;6.45;;
13660;SDS011;6903;49.480;11.102;2023-05-20T08:13:36;7.63;;;6.45;;
13660;SDS011;6903;49.480;11.102;2023-05-20T08:16:01;7.25;;;6.43;;
13660;SDS011;6903;49.480;11.102;2023-05-20T08:18:30;7.05;;;6.43;;
13660;SDS011;6903;49.480;11.102;2023-05-20T08:20:56;7.30;;;6.60;;
13660;SDS011;6903;49.480;11.102;2023-05-20T08:23:22;8.00;;;7.15;;
13660;SDS011;6903;49.480;11.102;2023-05-20T08:25:48;7.30;;;6.60;;
13660;SDS011;6903;49.480;11.102;2023-05-20T08:28:13;7.32;;;6.47;;
13660;SDS011;6903;49.480;11.102;2023-05-20T08:30:38;6.72;;;6.03;;
13660;SDS011;6903;49.480;11.102;2023-05-20T08:33:05;7.18;;;6.45;;
13660;SDS011;6903;49.480;11.102;2023-05-20T08:35:30;7.35;;;6.65;;
13660;SDS011;6903;49.480;11.102;2023-05-20T08:37:55;7.20;;;6.50;;
13660;SDS011;6903;49.480;11.102;2023-05-20T08:40:21;7.57;;;6.82;;
13660;SDS011;6903;49.480;11.102;2023-05-20T08:42:47;7.20;;;6.50;;
13660;SDS011;6903;49.480;11.102;2023-05-20T08:45:17;7.05;;;6.28;;
13660;SDS011;6903;49.480;11.102;2023-05-20T08:47:45;7.25;;;6.28;;
13660;SDS011;6903;49.480;11.102;2023-05-20T08:50:11;7.53;;;6.85;;
13660;SDS011;6903;49.480;11.102;2023-05-20T08:52:41;7.53;;;6.75;;
13660;SDS011;6903;49.480;11.102;2023-05-20T08:55:10;7.82;;;6.47;;
13660;SDS011;6903;49.480;11.102;2023-05-20T08:57:40;7.32;;;6.63;;
13660;SDS011;6903;49.480;11.102;2023-05-20T09:00:09;7.40;;;6.60;;
13660;SDS011;6903;49.480;11.102;2023-05-20T09:02:40;6.75;;;6.13;;
13660;SDS011;6903;49.480;11.102;2023-05-20T09:05:06;7.28;;;6.57;;
13660;SDS011;6903;49.480;11.102;2023-05-20T09:07:33;7.43;;;6.28;;
13660;SDS011;6903;49.480;11.102;2023-05-20T09:09:58;7.32;;;6.28;;
13660;SDS011;6903;49.480;11.102;2023-05-20T09:12:24;7.32;;;6.40;;
13660;SDS011;6903;49.480;11.102;2023-05-20T09:14:49;7.05;;;6.25;;
13660;SDS011;6903;49.480;11.102;2023-05-20T09:17:14;7.72;;;6.25;;
13660;SDS011;6903;49.480;11.102;2023-05-20T09:19:41;7.10;;;6.40;;
13660;SDS011;6903;49.480;11.102;2023-05-20T09:22:07;7.28;;;6.57;;
13660;SDS011;6903;49.480;11.102;2023-05-20T09:24:32;6.07;;;5.47;;
13660;SDS011;6903;49.480;11.102;2023-05-20T09:26:57;7.32;;;6.63;;
13660;SDS011;6903;49.480;11.102;2023-05-20T09:29:24;6.68;;;6.07;;
13660;SDS011;6903;49.480;11.102;2023-05-20T09:31:50;6.65;;;6.03;;
13660;SDS011;6903;49.480;11.102;2023-05-20T09:34:16;7.28;;;6.63;;
13660;SDS011;6903;49.480;11.102;2023-05-20T09:36:42;8.48;;;6.57;;
13660;SDS011;6903;49.480;11.102;2023-05-20T09:39:13;7.30;;;6.47;;
13660;SDS011;6903;49.480;11.102;2023-05-20T09:41:44;6.97;;;6.28;;
13660;SDS011;6903;49.480;11.102;2023-05-20T09:44:11;7.55;;;6.22;;
13660;SDS011;6903;49.480;11.102;2023-05-20T09:46:40;7.13;;;6.43;;
13660;SDS011;6903;49.480;11.102;2023-05-20T09:49:06;7.70;;;7.00;;
13660;SDS011;6903;49.480;11.102;2023-05-20T09:51:32;8.35;;;6.65;;
13660;SDS011;6903;49.480;11.102;2023-05-20T09:53:58;7.97;;;7.28;;
13660;SDS011;6903;49.480;11.102;2023-05-20T09:56:24;7.95;;;6.82;;
13660;SDS011;6903;49.480;11.102;2023-05-20T09:58:50;6.78;;;6.18;;
13660;SDS011;6903;49.480;11.102;2023-05-20T10:01:22;8.15;;;7.35;;
13660;SDS011;6903;49.480;11.102;2023-05-20T10:03:47;7.20;;;6.60;;
13660;SDS011;6903;49.480;11.102;2023-05-20T10:09:21;6.78;;;6.07;;
13660;SDS011;6903;49.480;11.102;2023-05-20T10:12:11;7.30;;;6.60;;
13660;SDS011;6903;49.480;11.102;2023-05-20T10:15:14;7.43;;;6.60;;
13660;SDS011;6903;49.480;11.102;2023-05-20T10:18:01;8.05;;;7.35;;
13660;SDS011;6903;49.480;11.102;2023-05-20T10:20:48;7.95;;;6.95;;
13660;SDS011;6903;49.480;11.102;2023-05-20T10:23:21;7.95;;;7.25;;
13660;SDS011;6903;49.480;11.102;2023-05-20T10:25:52;7.88;;;7.10;;
13660;SDS011;6903;49.480;11.102;2023-05-20T10:28:28;7.75;;;6.55;;
13660;SDS011;6903;49.480;11.102;2023-05-20T10:31:01;7.32;;;6.63;;
13660;SDS011;6903;49.480;11.102;2023-05-20T10:33:27;7.85;;;7.13;;
13660;SDS011;6903;49.480;11.102;2023-05-20T10:35:56;11.95;;;7.63;;
13660;SDS011;6903;49.480;11.102;2023-05-20T10:38:22;7.32;;;6.63;;
13660;SDS011;6903;49.480;11.102;2023-05-20T10:40:48;7.88;;;7.07;;
13660;SDS011;6903;49.480;11.102;2023-05-20T10:43:14;7.55;;;6.65;;
13660;SDS011;6903;49.480;11.102;2023-05-20T10:45:55;6.95;;;6.35;;
13660;SDS011;6903;49.480;11.102;2023-05-20T10:48:25;7.63;;;6.88;;
13660;SDS011;6903;49.480;11.102;2023-05-20T10:50:56;7.95;;;6.57;;
13660;SDS011;6903;49.480;11.102;2023-05-20T10:53:24;7.63;;;6.93;;
13660;SDS011;6903;49.480;11.102;2023-05-20T10:55:52;8.98;;;6.78;;
13660;SDS011;6903;49.480;11.102;2023-05-20T10:58:19;8.38;;;7.57;;
13660;SDS011;6903;49.480;11.102;2023-05-20T11:00:50;7.65;;;6.95;;
13660;SDS011;6903;49.480;11.102;2023-05-20T11:03:20;7.00;;;6.32;;
13660;SDS011;6903;49.480;11.102;2023-05-20T11:05:46;9.77;;;6.80;;
13660;SDS011;6903;49.480;11.102;2023-05-20T11:08:12;7.35;;;6.65;;
13660;SDS011;6903;49.480;11.102;2023-05-20T11:10:37;7.95;;;6.78;;
13660;SDS011;6903;49.480;11.102;2023-05-20T11:13:03;7.43;;;6.55;;
13660;SDS011;6903;49.480;11.102;2023-05-20T11:15:33;7.20;;;6.57;;
13660;SDS011;6903;49.480;11.102;2023-05-20T11:18:00;7.32;;;6.63;;
13660;SDS011;6903;49.480;11.102;2023-05-20T11:20:27;8.23;;;7.50;;
13660;SDS011;6903;49.480;11.102;2023-05-20T11:22:53;8.60;;;7.32;;
13660;SDS011;6903;49.480;11.102;2023-05-20T11:25:19;7.55;;;6.47;;
13660;SDS011;6903;49.480;11.102;2023-05-20T11:27:45;9.02;;;7.28;;
13660;SDS011;6903;49.480;11.102;2023-05-20T11:30:10;8.57;;;7.72;;
13660;SDS011;6903;49.480;11.102;2023-05-20T11:32:40;8.45;;;7.43;;
13660;SDS011;6903;49.480;11.102;2023-05-20T11:35:06;8.30;;;7.50;;
13660;SDS011;6903;49.480;11.102;2023-05-20T11:37:32;8.07;;;7.20;;
13660;SDS011;6903;49.480;11.102;2023-05-20T11:40:04;7.95;;;7.15;;
13660;SDS011;6903;49.480;11.102;2023-05-20T11:42:33;7.70;;;6.88;;
13660;SDS011;6903;49.480;11.102;2023-05-20T11:45:00;7.28;;;6.30;;
13660;SDS011;6903;49.480;11.102;2023-05-20T11:47:26;9.30;;;7.40;;
13660;SDS011;6903;49.480;11.102;2023-05-20T11:49:51;8.52;;;7.70;;
13660;SDS011;6903;49.480;11.102;2023-05-20T11:52:16;8.82;;;7.93;;
13660;SDS011;6903;49.480;11.102;2023-05-20T11:54:42;8.10;;;7.30;;
13660;SDS011;6903;49.480;11.102;2023-05-20T11:57:08;8.18;;;7.38;;
13660;SDS011;6903;49.480;11.102;2023-05-20T11:59:34;7.93;;;7.13;;
13660;SDS011;6903;49.480;11.102;2023-05-20T12:02:00;8.00;;;7.22;;
13660;SDS011;6903;49.480;11.102;2023-05-20T12:04:25;9.93;;;7.13;;
13660;SDS011;6903;49.480;11.102;2023-05-20T12:06:51;8.48;;;7.55;;
13660;SDS011;6903;49.480;11.102;2023-05-20T12:09:17;9.00;;;7.55;;
13660;SDS011;6903;49.480;11.102;2023-05-20T12:11:42;8.77;;;7.40;;
13660;SDS011;6903;49.480;11.102;2023-05-20T12:14:09;8.13;;;7.38;;
13660;SDS011;6903;49.480;11.102;2023-05-20T12:16:34;7.95;;;7.15;;
13660;SDS011;6903;49.480;11.102;2023-05-20T12:19:01;8.25;;;7.53;;
13660;SDS011;6903;49.480;11.102;2023-05-20T12:21:29;8.27;;;7.55;;
13660;SDS011;6903;49.480;11.102;2023-05-20T12:23:55;8.00;;;7.30;;
13660;SDS011;6903;49.480;11.102;2023-05-20T12:26:24;8.85;;;8.02;;
13660;SDS011;6903;49.480;11.102;2023-05-20T12:28:51;8.48;;;7.60;;
13660;SDS011;6903;49.480;11.102;2023-05-20T12:31:16;9.05;;;8.15;;
13660;SDS011;6903;49.480;11.102;2023-05-20T12:33:42;10.52;;;8.00;;
13660;SDS011;6903;49.480;11.102;2023-05-20T12:36:07;8.45;;;7.65;;
13660;SDS011;6903;49.480;11.102;2023-05-20T12:38:32;8.30;;;7.50;;
13660;SDS011;6903;49.480;11.102;2023-05-20T12:40:58;8.73;;;7.93;;
13660;SDS011;6903;49.480;11.102;2023-05-20T12:43:23;8.25;;;7.45;;
13660;SDS011;6903;49.480;11.102;2023-05-20T12:45:49;8.30;;;7.50;;
13660;SDS011;6903;49.480;11.102;2023-05-20T12:48:16;8.45;;;7.68;;
13660;SDS011;6903;49.480;11.102;2023-05-20T12:50:41;8.75;;;7.85;;
13660;SDS011;6903;49.480;11.102;2023-05-20T12:53:07;9.13;;;7.85;;
13660;SDS011;6903;49.480;11.102;2023-05-20T12:55:32;8.35;;;7.50;;
13660;SDS011;6903;49.480;11.102;2023-05-20T12:57:57;9.13;;;7.82;;
13660;SDS011;6903;49.480;11.102;2023-05-20T13:00:23;7.88;;;7.18;;
13660;SDS011;6903;49.480;11.102;2023-05-20T13:02:48;9.02;;;8.02;;
13660;SDS011;6903;49.480;11.102;2023-05-20T13:05:13;8.40;;;7.60;;
13660;SDS011;6903;49.480;11.102;2023-05-20T13:07:39;8.55;;;7.75;;
13660;SDS011;6903;49.480;11.102;2023-05-20T13:10:05;8.32;;;7.55;;
13660;SDS011;6903;49.480;11.102;2023-05-20T13:12:32;8.48;;;7.60;;
13660;SDS011;6903;49.480;11.102;2023-05-20T13:14:58;9.10;;;8.07;;
13660;SDS011;6903;49.480;11.102;2023-05-20T13:17:24;8.90;;;7.82;;
13660;SDS011;6903;49.480;11.102;2023-05-20T13:19:49;8.77;;;7.60;;
13660;SDS011;6903;49.480;11.102;2023-05-20T13:22:15;8.07;;;7.28;;
13660;SDS011;6903;49.480;11.102;2023-05-20T13:24:40;8.05;;;7.25;;
13660;SDS011;6903;49.480;11.102;2023-05-20T13:27:05;7.85;;;7.03;;
13660;SDS011;6903;49.480;11.102;2023-05-20T13:29:31;8.68;;;7.88;;
13660;SDS011;6903;49.480;11.102;2023-05-20T13:31:56;8.23;;;7.43;;
13660;SDS011;6903;49.480;11.102;2023-05-20T13:34:21;9.05;;;7.18;;
13660;SDS011;6903;49.480;11.102;2023-05-20T13:36:47;8.20;;;7.40;;
13660;SDS011;6903;49.480;11.102;2023-05-20T13:39:15;8.50;;;7.07;;
13660;SDS011;6903;49.480;11.102;2023-05-20T13:41:41;7.47;;;6.78;;
13660;SDS011;6903;49.480;11.102;2023-05-20T13:44:06;7.57;;;6.78;;
13660;SDS011;6903;49.480;11.102;2023-05-20T13:46:32;8.05;;;7.25;;
13660;SDS011;6903;49.480;11.102;2023-05-20T13:48:57;8.05;;;6.57;;
13660;SDS011;6903;49.480;11.102;2023-05-20T13:51:23;9.35;;;7.22;;
13660;SDS011;6903;49.480;11.102;2023-05-20T13:53:48;9.23;;;7.10;;
13660;SDS011;6903;49.480;11.102;2023-05-20T13:56:13;8.40;;;7.18;;
13660;SDS011;6903;49.480;11.102;2023-05-20T13:58:39;7.70;;;6.90;;
13660;SDS011;6903;49.480;11.102;2023-05-20T14:01:04;7.45;;;6.78;;
13660;SDS011;6903;49.480;11.102;2023-05-20T14:03:30;7.47;;;6.70;;
13660;SDS011;6903;49.480;11.102;2023-05-20T14:05:57;7.63;;;6.93;;
13660;SDS011;6903;49.480;11.102;2023-05-20T14:08:23;7.72;;;7.03;;
13660;SDS011;6903;49.480;11.102;2023-05-20T14:10:48;7.85;;;6.78;;
13660;SDS011;6903;49.480;11.102;2023-05-20T14:13:18;7.43;;;6.35;;
13660;SDS011;6903;49.480;11.102;2023-05-20T14:15:44;7.65;;;6.57;;
13660;SDS011;6903;49.480;11.102;2023-05-20T14:18:09;8.93;;;6.85;;
13660;SDS011;6903;49.480;11.102;2023-05-20T14:20:35;7.50;;;6.80;;
13660;SDS011;6903;49.480;11.102;2023-05-20T14:23:00;8.15;;;7.45;;
13660;SDS011;6903;49.480;11.102;2023-05-20T14:25:26;7.50;;;6.80;;
13660;SDS011;6903;49.480;11.102;2023-05-20T14:27:51;7.18;;;6.47;;
13660;SDS011;6903;49.480;11.102;2023-05-20T14:30:17;7.82;;;7.13;;
13660;SDS011;6903;49.480;11.102;2023-05-20T14:32:42;7.50;;;6.90;;
13660;SDS011;6903;49.480;11.102;2023-05-20T14:35:07;7.35;;;6.70;;
13660;SDS011;6903;49.480;11.102;2023-05-20T14:37:33;7.22;;;6.53;;
13660;SDS011;6903;49.480;11.102;2023-05-20T14:39:58;7.53;;;6.80;;
13660;SDS011;6903;49.480;11.102;2023-05-20T14:42:24;7.10;;;6.50;;
13660;SDS011;6903;49.480;11.102;2023-05-20T14:44:49;7.50;;;6.68;;